Time;durP1;ratioP1;P1;durP2;ratioP2;P2;SDS_P1;SDS_P2;PMS_P1;PMS_P2;Temp;Humidity;BMP_temperature;BMP_pressure;BME280_temperature;BME280_humidity;BME280_pressure;Samples;Min_cycle;Max_cycle;Signal;HPM_P1;HPM_P2
2021/04/03 00:00:05;;;;;;;;;;;18.70;50.90;;;;;;5023058;28;19922;-66
2021/04/03 00:02:30;;;;;;;;;;;18.60;50.90;;;;;;5023355;28;20343;-66
2021/04/03 00:04:56;;;;;;;;;;;18.70;50.90;;;;;;5023654;28;19928;-66
2021/04/03 00:07:21;;;;;;;;;;;18.60;50.90;;;;;;5020867;28;20733;-64
2021/04/03 00:09:47;;;;;;;;;;;18.60;50.90;;;;;;5021850;28;20008;-64
2021/04/03 00:12:12;;;;;;;;;;;18.60;50.90;;;;;;5024669;28;19933;-65
2021/04/03 00:14:38;;;;;;;;;;;18.60;50.90;;;;;;5027112;28;19924;-65
2021/04/03 00:17:03;;;;;;;;;;;18.60;50.90;;;;;;5027229;28;19983;-65
2021/04/03 00:19:29;;;;;;;;;;;18.60;50.80;;;;;;5027142;28;19925;-65
2021/04/03 00:21:54;;;;;;;;;;;18.60;50.80;;;;;;5029200;28;19921;-66
2021/04/03 00:24:19;;;;;;;;;;;18.60;50.90;;;;;;5030545;28;20473;-66
2021/04/03 00:26:45;;;;;;;;;;;18.60;50.80;;;;;;5030814;28;19932;-63
2021/04/03 00:29:10;;;;;;;;;;;18.60;50.80;;;;;;5029997;28;19918;-65
2021/04/03 00:31:36;;;;;;;;;;;18.60;50.80;;;;;;5027032;28;19949;-65
2021/04/03 00:34:01;;;;;;;;;;;18.60;50.80;;;;;;5026646;28;20303;-66
2021/04/03 00:36:27;;;;;;;;;;;18.60;50.80;;;;;;5024700;28;19943;-66
2021/04/03 00:38:52;;;;;;;;;;;18.60;50.80;;;;;;5026798;28;19925;-65
2021/04/03 00:41:18;;;;;;;;;;;18.60;50.80;;;;;;5026888;28;19923;-65
2021/04/03 00:43:43;;;;;;;;;;;18.60;50.80;;;;;;5018164;28;19917;-64
2021/04/03 00:46:09;;;;;;;;;;;18.60;50.80;;;;;;5026731;28;19921;-64
2021/04/03 00:48:34;;;;;;;;;;;18.60;50.80;;;;;;5019535;28;20336;-65
2021/04/03 00:51:00;;;;;;;;;;;18.60;50.80;;;;;;5026552;28;19961;-66
2021/04/03 00:53:25;;;;;;;;;;;18.60;50.80;;;;;;5026189;28;19923;-66
2021/04/03 00:55:51;;;;;;;;;;;18.60;50.90;;;;;;5026831;28;20105;-66
2021/04/03 00:58:16;;;;;;;;;;;18.60;50.80;;;;;;5024867;28;20749;-66
2021/04/03 01:00:42;;;;;;;;;;;18.60;50.80;;;;;;5024033;28;19921;-65
2021/04/03 01:03:07;;;;;;;;;;;18.50;50.80;;;;;;5026016;28;19928;-65
2021/04/03 01:05:33;;;;;;;;;;;18.50;50.80;;;;;;5025661;28;19928;-66
2021/04/03 01:07:59;;;;;;;;;;;18.50;50.80;;;;;;5026112;28;19924;-65
2021/04/03 01:10:31;;;;;;;;;;;18.50;50.80;;;;;;5024611;28;19921;-66
2021/04/03 01:13:02;;;;;;;;;;;18.50;50.80;;;;;;5026268;28;19917;-66
2021/04/03 01:15:40;;;;;;;;;;;18.50;50.80;;;;;;5025647;28;19924;-66
2021/04/03 01:18:24;;;;;;;;;;;18.50;50.80;;;;;;5025736;28;19932;-66
2021/04/03 01:21:04;;;;;;;;;;;18.50;50.80;;;;;;5025916;28;19932;-65
2021/04/03 01:23:49;;;;;;;;;;;18.50;50.80;;;;;;5022618;28;19922;-66
2021/04/03 01:26:33;;;;;;;;;;;18.50;50.80;;;;;;5025887;28;19924;-65
2021/04/03 01:29:09;;;;;;;;;;;18.50;50.80;;;;;;5019150;28;19918;-66
2021/04/03 01:31:35;;;;;;;;;;;18.50;50.80;;;;;;5025557;28;20071;-65
2021/04/03 01:34:01;;;;;;;;;;;18.50;50.80;;;;;;5008896;28;20004;-65
2021/04/03 01:36:26;;;;;;;;;;;18.50;50.80;;;;;;5024509;28;20519;-66
2021/04/03 01:38:56;;;;;;;;;;;18.50;50.80;;;;;;5024538;28;19924;-66
2021/04/03 01:41:23;;;;;;;;;;;18.50;50.80;;;;;;5025333;28;19966;-66
2021/04/03 01:43:49;;;;;;;;;;;18.50;50.70;;;;;;5026946;28;19914;-66
2021/04/03 01:46:14;;;;;;;;;;;18.50;50.80;;;;;;5026862;28;19920;-66
2021/04/03 01:48:40;;;;;;;;;;;18.50;50.70;;;;;;5025773;28;19921;-66
2021/04/03 01:51:06;;;;;;;;;;;18.50;50.80;;;;;;5026057;28;19917;-66
2021/04/03 01:53:31;;;;;;;;;;;18.50;50.70;;;;;;5025843;28;19917;-66
2021/04/03 01:55:56;;;;;;;;;;;18.50;50.70;;;;;;5024577;28;19913;-66
2021/04/03 01:58:22;;;;;;;;;;;18.40;50.70;;;;;;5024116;28;19915;-66
2021/04/03 02:00:47;;;;;;;;;;;18.50;50.70;;;;;;5026023;28;19925;-66
2021/04/03 02:03:13;;;;;;;;;;;18.40;50.60;;;;;;5025539;28;19924;-66
2021/04/03 02:05:38;;;;;;;;;;;18.50;50.70;;;;;;5024136;28;19913;-66
2021/04/03 02:08:04;;;;;;;;;;;18.40;50.70;;;;;;5022767;28;19917;-66
2021/04/03 02:10:29;;;;;;;;;;;18.40;50.60;;;;;;5025639;28;19917;-66
2021/04/03 02:12:55;;;;;;;;;;;18.40;51.30;;;;;;5024463;28;19920;-66
2021/04/03 02:15:23;;;;;;;;;;;18.40;50.60;;;;;;5025991;28;19914;-66
2021/04/03 02:17:49;;;;;;;;;;;18.40;50.60;;;;;;5023576;28;20297;-65
2021/04/03 02:20:14;;;;;;;;;;;18.40;50.60;;;;;;5023890;28;19920;-65
2021/04/03 02:22:40;;;;;;;;;;;18.40;50.70;;;;;;5025649;28;20336;-65
2021/04/03 02:25:06;;;;;;;;;;;18.40;50.70;;;;;;5025314;28;19967;-66
2021/04/03 02:27:32;;;;;;;;;;;18.40;50.60;;;;;;5025673;28;19921;-65
2021/04/03 02:30:11;;;;;;;;;;;18.40;50.60;;;;;;5025589;28;19913;-66
2021/04/03 02:32:37;;;;;;;;;;;18.40;50.60;;;;;;5025884;28;19917;-66
2021/04/03 02:35:02;;;;;;;;;;;18.40;50.60;;;;;;5024772;28;19928;-66
2021/04/03 02:37:28;;;;;;;;;;;18.40;50.70;;;;;;5026362;28;20338;-66
2021/04/03 02:39:53;;;;;;;;;;;18.40;50.70;;;;;;5026050;28;19913;-66
2021/04/03 02:42:19;;;;;;;;;;;18.40;50.60;;;;;;5027559;28;19956;-66
2021/04/03 02:44:45;;;;;;;;;;;18.40;50.60;;;;;;5025836;28;19924;-66
2021/04/03 02:47:31;;;;;;;;;;;18.40;50.60;;;;;;5027456;28;22514;-65
2021/04/03 02:50:02;;;;;;;;;;;18.40;50.60;;;;;;5020243;28;19967;-66
2021/04/03 02:52:28;;;;;;;;;;;18.40;50.60;;;;;;5028628;28;19917;-66
2021/04/03 02:54:53;;;;;;;;;;;18.30;50.60;;;;;;5027048;28;19971;-66
2021/04/03 02:57:19;;;;;;;;;;;18.30;50.60;;;;;;5026224;28;20368;-66
2021/04/03 02:59:47;;;;;;;;;;;18.30;50.60;;;;;;5025069;28;19971;-65
2021/04/03 03:02:14;;;;;;;;;;;18.30;50.60;;;;;;5026152;28;19913;-66
2021/04/03 03:04:39;;;;;;;;;;;18.30;50.60;;;;;;5025708;28;19984;-66
2021/04/03 03:07:05;;;;;;;;;;;18.30;50.60;;;;;;5027108;28;19937;-66
2021/04/03 03:09:30;;;;;;;;;;;18.40;50.60;;;;;;5023812;28;19913;-66
2021/04/03 03:11:57;;;;;;;;;;;18.30;50.60;;;;;;5025743;28;20395;-66
2021/04/03 03:14:23;;;;;;;;;;;18.30;50.60;;;;;;5027008;28;19967;-65
2021/04/03 03:16:48;;;;;;;;;;;18.30;50.60;;;;;;5009887;28;20380;-62
2021/04/03 03:19:14;;;;;;;;;;;18.30;50.60;;;;;;5024361;28;20440;-66
2021/04/03 03:21:40;;;;;;;;;;;18.30;50.50;;;;;;5027309;28;19939;-65
2021/04/03 03:24:05;;;;;;;;;;;18.30;50.50;;;;;;5028771;28;20180;-65
2021/04/03 03:26:32;;;;;;;;;;;18.30;50.50;;;;;;5024002;28;19964;-66
2021/04/03 03:28:57;;;;;;;;;;;18.30;50.50;;;;;;5023896;28;19988;-66
2021/04/03 03:31:23;;;;;;;;;;;18.30;50.50;;;;;;5023237;28;19924;-66
2021/04/03 03:33:48;;;;;;;;;;;18.30;50.50;;;;;;5025096;28;19917;-66
2021/04/03 03:36:13;;;;;;;;;;;18.30;50.50;;;;;;5023541;28;19913;-66
2021/04/03 03:38:39;;;;;;;;;;;18.30;50.50;;;;;;5024018;28;20319;-66
2021/04/03 03:41:05;;;;;;;;;;;18.30;50.40;;;;;;5022853;28;19964;-66
2021/04/03 03:43:30;;;;;;;;;;;18.30;50.40;;;;;;5024142;28;19917;-67
2021/04/03 03:45:56;;;;;;;;;;;18.30;50.40;;;;;;5024133;28;20410;-66
2021/04/03 03:48:21;;;;;;;;;;;18.30;50.40;;;;;;5024821;28;19913;-65
2021/04/03 03:50:47;;;;;;;;;;;18.30;50.40;;;;;;5023635;28;20000;-65
2021/04/03 03:53:12;;;;;;;;;;;18.30;50.50;;;;;;5024505;28;19917;-65
2021/04/03 03:55:37;;;;;;;;;;;18.20;50.40;;;;;;5023870;28;19952;-66
2021/04/03 03:58:03;;;;;;;;;;;18.20;50.40;;;;;;5023294;28;20007;-65
2021/04/03 04:00:28;;;;;;;;;;;18.20;50.40;;;;;;5023830;28;19932;-66
2021/04/03 04:02:54;;;;;;;;;;;18.20;50.40;;;;;;5024619;28;20439;-66
2021/04/03 04:05:19;;;;;;;;;;;18.20;50.40;;;;;;5024469;28;19917;-67
2021/04/03 04:07:45;;;;;;;;;;;18.20;50.30;;;;;;5023959;28;19913;-65
2021/04/03 04:10:12;;;;;;;;;;;18.20;50.40;;;;;;5024129;28;20365;-65
2021/04/03 04:12:37;;;;;;;;;;;18.20;50.30;;;;;;5023961;28;19923;-67
2021/04/03 04:15:03;;;;;;;;;;;18.20;50.30;;;;;;5024096;28;19917;-66
2021/04/03 04:17:29;;;;;;;;;;;18.20;50.40;;;;;;5023871;28;19975;-66
2021/04/03 04:19:54;;;;;;;;;;;18.20;50.40;;;;;;5022805;28;20458;-67
2021/04/03 04:22:19;;;;;;;;;;;18.20;50.40;;;;;;5024526;28;19987;-66
2021/04/03 04:24:45;;;;;;;;;;;18.20;50.40;;;;;;5024264;28;19914;-67
2021/04/03 04:27:10;;;;;;;;;;;18.20;50.50;;;;;;5024009;28;19920;-66
2021/04/03 04:29:36;;;;;;;;;;;18.20;50.50;;;;;;5023474;28;20481;-66
2021/04/03 04:32:02;;;;;;;;;;;18.20;50.50;;;;;;5023825;28;19921;-66
2021/04/03 04:34:28;;;;;;;;;;;18.20;50.50;;;;;;5023922;28;19918;-66
2021/04/03 04:36:53;;;;;;;;;;;18.20;50.50;;;;;;5023588;28;20398;-66
2021/04/03 04:39:18;;;;;;;;;;;18.20;50.50;;;;;;5024151;28;19913;-66
2021/04/03 04:41:44;;;;;;;;;;;18.20;50.50;;;;;;5023236;28;20387;-66
2021/04/03 04:44:09;;;;;;;;;;;18.20;50.60;;;;;;5023947;28;19920;-66
2021/04/03 04:46:35;;;;;;;;;;;18.10;50.50;;;;;;5023540;28;19928;-67
2021/04/03 04:49:00;;;;;;;;;;;18.10;50.40;;;;;;5023708;28;19913;-66
2021/04/03 04:51:26;;;;;;;;;;;18.10;50.50;;;;;;5023769;28;20384;-67
2021/04/03 04:53:51;;;;;;;;;;;18.10;50.40;;;;;;5024322;28;19917;-67
2021/04/03 04:56:17;;;;;;;;;;;18.10;50.50;;;;;;5023772;28;19913;-66
2021/04/03 04:58:42;;;;;;;;;;;18.20;50.50;;;;;;5025872;28;19917;-66
2021/04/03 05:01:07;;;;;;;;;;;18.10;50.50;;;;;;5028180;28;19928;-67
2021/04/03 05:03:33;;;;;;;;;;;18.10;50.50;;;;;;5030173;28;19913;-66
2021/04/03 05:05:58;;;;;;;;;;;18.10;50.40;;;;;;5029977;28;19913;-66
2021/04/03 05:08:24;;;;;;;;;;;18.10;50.50;;;;;;5030022;28;20284;-67
2021/04/03 05:10:49;;;;;;;;;;;18.10;50.40;;;;;;5030666;28;19956;-66
2021/04/03 05:13:15;;;;;;;;;;;18.10;50.40;;;;;;5029852;28;19914;-66
2021/04/03 05:15:40;;;;;;;;;;;18.10;50.50;;;;;;5031260;28;19913;-66
2021/04/03 05:18:06;;;;;;;;;;;18.10;50.40;;;;;;5029170;28;19920;-66
2021/04/03 05:20:31;;;;;;;;;;;18.10;50.40;;;;;;5028032;28;19927;-65
2021/04/03 05:22:56;;;;;;;;;;;18.10;50.40;;;;;;5027837;28;20364;-66
2021/04/03 05:25:22;;;;;;;;;;;18.10;51.10;;;;;;5027683;28;19913;-66
2021/04/03 05:27:47;;;;;;;;;;;18.10;50.40;;;;;;5026445;28;21775;-66
2021/04/03 05:30:13;;;;;;;;;;;18.10;50.40;;;;;;5026615;28;19917;-66
2021/04/03 05:32:38;;;;;;;;;;;18.10;50.40;;;;;;5027060;28;20073;-65
2021/04/03 05:35:04;;;;;;;;;;;18.00;50.40;;;;;;5027609;28;19941;-66
2021/04/03 05:37:29;;;;;;;;;;;18.10;50.40;;;;;;5027262;28;19917;-65
2021/04/03 05:39:55;;;;;;;;;;;18.00;50.40;;;;;;5027956;28;20396;-67
2021/04/03 05:42:20;;;;;;;;;;;18.10;50.40;;;;;;5028867;28;19967;-66
2021/04/03 05:44:46;;;;;;;;;;;18.10;50.40;;;;;;5029126;28;19917;-66
2021/04/03 05:47:15;;;;;;;;;;;18.10;50.40;;;;;;5026823;28;19913;-66
2021/04/03 05:49:40;;;;;;;;;;;18.00;50.40;;;;;;5026200;28;20358;-66
2021/04/03 05:52:06;;;;;;;;;;;18.00;50.30;;;;;;5024579;28;20396;-66
2021/04/03 05:54:32;;;;;;;;;;;18.00;50.40;;;;;;5022620;28;19913;-66
2021/04/03 05:56:58;;;;;;;;;;;18.00;50.40;;;;;;5023889;28;19917;-66
2021/04/03 05:59:23;;;;;;;;;;;18.00;50.30;;;;;;5024501;28;19917;-66
2021/04/03 06:01:48;;;;;;;;;;;18.00;50.30;;;;;;5025338;28;19921;-67
2021/04/03 06:04:14;;;;;;;;;;;18.00;50.30;;;;;;5026120;28;19921;-66
2021/04/03 06:06:40;;;;;;;;;;;18.00;50.30;;;;;;5024543;28;19913;-66
2021/04/03 06:09:05;;;;;;;;;;;18.00;50.30;;;;;;5024444;28;19920;-67
2021/04/03 06:11:31;;;;;;;;;;;18.00;50.30;;;;;;5025278;28;19925;-67
2021/04/03 06:13:56;;;;;;;;;;;18.00;50.40;;;;;;5024594;28;20306;-66
2021/04/03 06:16:35;;;;;;;;;;;18.00;50.30;;;;;;5026343;28;20141;-66
2021/04/03 06:19:19;;;;;;;;;;;17.90;50.40;;;;;;5025788;28;19917;-66
2021/04/03 06:21:45;;;;;;;;;;;18.00;50.70;;;;;;5025282;28;19913;-67
2021/04/03 06:24:18;;;;;;;;;;;17.90;51.00;;;;;;5025807;28;19925;-66
2021/04/03 06:26:53;;;;;;;;;;;17.90;51.30;;;;;;5025523;28;20008;-66
2021/04/03 06:29:22;;;;;;;;;;;17.90;51.50;;;;;;5025454;28;19913;-66
2021/04/03 06:31:52;;;;;;;;;;;17.90;51.70;;;;;;5024920;28;19921;-67
2021/04/03 06:34:31;;;;;;;;;;;17.90;51.80;;;;;;5024303;28;19996;-65
2021/04/03 06:36:56;;;;;;;;;;;17.90;51.70;;;;;;5022322;28;19917;-67
2021/04/03 06:39:22;;;;;;;;;;;17.90;51.70;;;;;;5023716;28;19913;-66
2021/04/03 06:41:47;;;;;;;;;;;17.90;51.70;;;;;;5023428;28;20368;-67
2021/04/03 06:44:13;;;;;;;;;;;17.90;51.60;;;;;;5023647;28;19925;-67
2021/04/03 06:46:39;;;;;;;;;;;17.90;51.50;;;;;;5023339;28;19975;-67
2021/04/03 06:49:04;;;;;;;;;;;17.90;51.50;;;;;;5024154;28;19913;-67
2021/04/03 06:51:30;;;;;;;;;;;17.90;51.40;;;;;;5024800;28;19972;-64
2021/04/03 06:53:56;;;;;;;;;;;18.00;51.40;;;;;;5022962;28;20363;-65
2021/04/03 06:56:22;;;;;;;;;;;17.90;51.20;;;;;;5025501;28;19960;-65
2021/04/03 06:58:48;;;;;;;;;;;17.90;51.20;;;;;;5023005;28;19913;-65
2021/04/03 07:01:17;;;;;;;;;;;17.90;51.10;;;;;;5025848;28;19925;-66
2021/04/03 07:03:48;;;;;;;;;;;18.00;51.10;;;;;;5025770;28;19944;-65
2021/04/03 07:06:13;;;;;;;;;;;18.00;51.00;;;;;;5024944;28;19961;-65
2021/04/03 07:08:39;;;;;;;;;;;18.00;50.90;;;;;;5025295;28;19913;-66
2021/04/03 07:11:06;;;;;;;;;;;17.90;50.80;;;;;;5025140;28;19953;-65
2021/04/03 07:13:31;;;;;;;;;;;18.00;50.80;;;;;;5025763;28;19913;-68
2021/04/03 07:15:56;;;;;;;;;;;18.00;50.90;;;;;;5026086;28;19920;-67
2021/04/03 07:18:22;;;;;;;;;;;18.00;50.90;;;;;;5026861;28;19940;-67
2021/04/03 07:20:47;;;;;;;;;;;18.00;50.90;;;;;;5028963;28;20022;-66
2021/04/03 07:23:14;;;;;;;;;;;17.90;50.80;;;;;;5028487;28;19913;-66
2021/04/03 07:25:40;;;;;;;;;;;18.00;50.80;;;;;;5021017;28;19913;-65
2021/04/03 07:28:05;;;;;;;;;;;18.00;50.80;;;;;;5025496;28;19966;-67
2021/04/03 07:30:40;;;;;;;;;;;17.90;50.70;;;;;;5024684;28;19921;-67
2021/04/03 07:33:06;;;;;;;;;;;18.00;50.70;;;;;;5024669;28;19920;-66
2021/04/03 07:35:33;;;;;;;;;;;18.00;50.70;;;;;;5025148;28;19921;-67
2021/04/03 07:37:58;;;;;;;;;;;17.90;50.60;;;;;;5040395;28;20115;-66
2021/04/03 07:40:24;;;;;;;;;;;17.90;50.60;;;;;;5041500;28;20347;-68
2021/04/03 07:42:49;;;;;;;;;;;17.90;50.60;;;;;;5027460;28;19914;-67
2021/04/03 07:45:29;;;;;;;;;;;17.90;50.50;;;;;;5029343;28;19913;-65
2021/04/03 07:47:55;;;;;;;;;;;17.90;50.50;;;;;;5024354;28;20051;-66
2021/04/03 07:50:39;;;;;;;;;;;18.00;50.60;;;;;;5023840;28;19917;-66
2021/04/03 07:53:05;;;;;;;;;;;18.00;50.50;;;;;;5024214;28;19913;-65
2021/04/03 07:55:31;;;;;;;;;;;17.90;50.50;;;;;;5038969;28;19913;-66
2021/04/03 07:58:15;;;;;;;;;;;17.90;50.50;;;;;;5023287;28;19925;-66
2021/04/03 08:00:40;;;;;;;;;;;17.90;50.50;;;;;;5018777;28;19921;-66
2021/04/03 08:03:06;;;;;;;;;;;17.90;50.40;;;;;;5039210;28;19921;-65
2021/04/03 08:05:31;;;;;;;;;;;17.90;50.40;;;;;;5024140;28;19921;-66
2021/04/03 08:07:57;;;;;;;;;;;17.90;50.40;;;;;;5023201;28;19917;-65
2021/04/03 08:10:23;;;;;;;;;;;17.90;50.30;;;;;;5023623;28;20376;-65
2021/04/03 08:12:48;;;;;;;;;;;17.90;50.40;;;;;;5024166;28;19913;-66
2021/04/03 08:15:17;;;;;;;;;;;17.90;50.30;;;;;;5038116;28;19914;-66
2021/04/03 08:17:43;;;;;;;;;;;17.90;50.30;;;;;;5023456;28;20291;-66
2021/04/03 08:20:08;;;;;;;;;;;17.90;50.40;;;;;;5038252;28;19960;-68
2021/04/03 08:22:34;;;;;;;;;;;17.90;50.70;;;;;;5023798;28;19914;-65
2021/04/03 08:24:59;;;;;;;;;;;17.80;50.80;;;;;;5023692;28;19917;-66
2021/04/03 08:27:34;;;;;;;;;;;17.80;51.10;;;;;;5024028;28;19917;-64
2021/04/03 08:30:00;;;;;;;;;;;17.80;51.20;;;;;;5023780;28;19917;-66
2021/04/03 08:32:25;;;;;;;;;;;17.80;51.40;;;;;;5024376;28;19913;-66
2021/04/03 08:34:51;;;;;;;;;;;17.70;51.60;;;;;;5027286;28;19971;-66
2021/04/03 08:37:17;;;;;;;;;;;17.80;52.70;;;;;;5021262;28;19913;-64
2021/04/03 08:39:42;;;;;;;;;;;17.80;53.50;;;;;;5059154;28;19925;-66
2021/04/03 08:42:08;;;;;;;;;;;17.80;53.70;;;;;;5028365;28;19975;-65
2021/04/03 08:44:33;;;;;;;;;;;17.80;54.10;;;;;;5028316;28;19921;-66
2021/04/03 08:46:59;;;;;;;;;;;17.80;54.10;;;;;;5028739;28;19913;-66
2021/04/03 08:49:25;;;;;;;;;;;17.80;53.90;;;;;;5061073;28;19921;-66
2021/04/03 08:51:51;;;;;;;;;;;17.80;53.90;;;;;;5030980;28;20303;-67
2021/04/03 08:54:16;;;;;;;;;;;17.80;53.90;;;;;;5028518;28;19921;-67
2021/04/03 08:56:42;;;;;;;;;;;17.80;53.90;;;;;;5027749;28;19913;-66
2021/04/03 08:59:08;;;;;;;;;;;17.80;53.80;;;;;;5027607;28;19952;-66
2021/04/03 09:01:36;;;;;;;;;;;17.80;53.70;;;;;;5027383;28;19980;-65
2021/04/03 09:04:07;;;;;;;;;;;17.80;53.70;;;;;;5027034;28;19924;-65
2021/04/03 09:06:38;;;;;;;;;;;17.80;53.70;;;;;;5027025;28;20537;-66
2021/04/03 09:09:07;;;;;;;;;;;17.80;53.70;;;;;;5026179;28;19914;-66
2021/04/03 09:11:33;;;;;;;;;;;17.80;53.60;;;;;;5026968;28;19925;-66
2021/04/03 09:13:58;;;;;;;;;;;17.80;53.60;;;;;;5027121;28;20514;-66
2021/04/03 09:16:24;;;;;;;;;;;17.90;53.50;;;;;;5026940;28;19984;-65
2021/04/03 09:18:51;;;;;;;;;;;17.90;53.40;;;;;;5025186;28;19920;-65
2021/04/03 09:21:19;;;;;;;;;;;17.90;53.30;;;;;;5058704;28;20387;-66
2021/04/03 09:23:48;;;;;;;;;;;17.90;53.30;;;;;;5027039;28;19917;-66
2021/04/03 09:26:13;;;;;;;;;;;17.90;53.20;;;;;;5058800;28;19921;-65
2021/04/03 09:28:39;;;;;;;;;;;18.00;53.30;;;;;;5026976;28;19939;-65
2021/04/03 09:31:05;;;;;;;;;;;17.90;53.20;;;;;;5026348;28;19917;-65
2021/04/03 09:33:30;;;;;;;;;;;18.00;53.10;;;;;;5026269;28;19917;-65
2021/04/03 09:36:09;;;;;;;;;;;18.00;53.00;;;;;;5026726;28;19913;-65
2021/04/03 09:38:37;;;;;;;;;;;18.00;53.00;;;;;;5057995;28;20288;-65
2021/04/03 09:41:02;;;;;;;;;;;18.00;52.90;;;;;;5057927;28;19914;-64
2021/04/03 09:43:40;;;;;;;;;;;18.00;52.90;;;;;;5026183;28;19913;-65
2021/04/03 09:46:05;;;;;;;;;;;18.00;52.70;;;;;;5026322;28;20419;-66
2021/04/03 09:48:31;;;;;;;;;;;18.10;52.80;;;;;;5057784;28;19984;-66
2021/04/03 09:50:57;;;;;;;;;;;18.10;52.80;;;;;;5025927;28;20344;-65
2021/04/03 09:53:26;;;;;;;;;;;18.10;52.60;;;;;;5026813;28;19917;-64
2021/04/03 09:55:52;;;;;;;;;;;18.10;52.70;;;;;;5024900;28;19913;-65
2021/04/03 09:58:17;;;;;;;;;;;18.10;52.70;;;;;;5058337;28;19919;-65
2021/04/03 10:00:43;;;;;;;;;;;18.10;52.70;;;;;;5025024;28;20399;-66
2021/04/03 10:03:08;;;;;;;;;;;18.10;52.70;;;;;;5028065;28;19917;-65
2021/04/03 10:05:34;;;;;;;;;;;18.10;53.20;;;;;;5027926;28;19913;-67
2021/04/03 10:07:59;;;;;;;;;;;18.10;52.60;;;;;;5028272;28;19939;-63
2021/04/03 10:10:24;;;;;;;;;;;18.10;52.70;;;;;;5025470;28;20081;-67
2021/04/03 10:12:50;;;;;;;;;;;18.10;52.60;;;;;;5027263;28;19956;-67
2021/04/03 10:15:16;;;;;;;;;;;18.10;52.60;;;;;;5025834;28;19921;-67
2021/04/03 10:17:41;;;;;;;;;;;18.10;52.60;;;;;;5026350;28;19975;-66
2021/04/03 10:20:07;;;;;;;;;;;18.10;52.50;;;;;;5025484;28;19998;-66
2021/04/03 10:22:32;;;;;;;;;;;18.10;52.50;;;;;;5025409;28;19917;-66
2021/04/03 10:24:58;;;;;;;;;;;18.10;52.40;;;;;;5025426;28;19920;-66
2021/04/03 10:27:23;;;;;;;;;;;18.20;52.50;;;;;;5025425;28;19914;-65
2021/04/03 10:29:48;;;;;;;;;;;18.20;52.50;;;;;;5025729;28;20581;-66
2021/04/03 10:32:14;;;;;;;;;;;18.10;52.40;;;;;;5025759;28;19960;-67
2021/04/03 10:34:39;;;;;;;;;;;18.20;52.40;;;;;;5025926;28;19921;-66
2021/04/03 10:37:05;;;;;;;;;;;18.20;52.40;;;;;;5024931;28;20020;-66
2021/04/03 10:39:30;;;;;;;;;;;18.20;52.30;;;;;;5028368;23;20264;-58
2021/04/03 10:41:56;;;;;;;;;;;18.20;52.40;;;;;;5022863;28;19913;-58
2021/04/03 10:44:21;;;;;;;;;;;18.20;52.30;;;;;;5023292;28;19924;-59
2021/04/03 10:46:47;;;;;;;;;;;18.20;52.30;;;;;;5022497;28;19995;-58
2021/04/03 10:49:12;;;;;;;;;;;18.20;52.30;;;;;;5023690;28;19913;-57
2021/04/03 10:51:38;;;;;;;;;;;18.20;52.20;;;;;;5022435;28;19917;-56
2021/04/03 10:54:03;;;;;;;;;;;18.20;52.20;;;;;;4989285;28;20034;-58
2021/04/03 10:56:29;;;;;;;;;;;18.20;52.10;;;;;;5005040;28;19914;-60
2021/04/03 10:58:54;;;;;;;;;;;18.20;52.20;;;;;;5005658;28;19920;-60
2021/04/03 11:01:20;;;;;;;;;;;18.20;52.10;;;;;;5023296;28;20382;-61
2021/04/03 11:03:45;;;;;;;;;;;18.20;52.10;;;;;;5023112;28;19979;-61
2021/04/03 11:06:11;;;;;;;;;;;18.20;52.10;;;;;;5023033;28;19913;-61
2021/04/03 11:08:36;;;;;;;;;;;18.20;52.10;;;;;;5022821;28;19917;-59
2021/04/03 11:11:02;;;;;;;;;;;18.20;52.00;;;;;;5022306;28;20567;-58
2021/04/03 11:13:27;;;;;;;;;;;18.20;52.00;;;;;;5004481;28;19936;-57
2021/04/03 11:15:52;;;;;;;;;;;18.20;52.60;;;;;;5022835;28;19913;-59
2021/04/03 11:18:18;;;;;;;;;;;18.20;52.00;;;;;;5023088;28;19913;-58
2021/04/03 11:20:44;;;;;;;;;;;18.20;51.90;;;;;;5005370;28;19921;-58
2021/04/03 11:23:09;;;;;;;;;;;18.20;52.00;;;;;;5022132;28;19919;-60
2021/04/03 11:25:35;;;;;;;;;;;18.20;51.90;;;;;;5022533;28;19913;-59
2021/04/03 11:28:00;;;;;;;;;;;18.20;51.80;;;;;;4988347;28;19923;-59
2021/04/03 11:30:26;;;;;;;;;;;18.20;51.80;;;;;;5022308;28;19921;-60
2021/04/03 11:32:51;;;;;;;;;;;18.10;51.70;;;;;;5022658;28;19971;-58
2021/04/03 11:35:17;;;;;;;;;;;18.10;51.70;;;;;;5004690;28;20382;-57
2021/04/03 11:37:43;;;;;;;;;;;18.10;51.70;;;;;;5023063;28;20433;-58
2021/04/03 11:40:09;;;;;;;;;;;18.10;51.70;;;;;;5004365;28;19921;-59
2021/04/03 11:42:35;;;;;;;;;;;18.20;51.70;;;;;;5022118;28;20029;-60
2021/04/03 11:45:00;;;;;;;;;;;18.10;51.60;;;;;;5004296;28;19920;-59
2021/04/03 11:47:26;;;;;;;;;;;18.20;51.60;;;;;;5021984;28;19914;-60
2021/04/03 11:49:52;;;;;;;;;;;18.20;51.50;;;;;;5022531;28;19917;-59
2021/04/03 11:52:17;;;;;;;;;;;18.20;51.50;;;;;;5004344;28;20333;-60
2021/04/03 11:54:43;;;;;;;;;;;18.20;51.50;;;;;;5023433;28;19913;-60
2021/04/03 11:57:08;;;;;;;;;;;18.10;51.40;;;;;;5021047;28;19913;-58
2021/04/03 11:59:34;;;;;;;;;;;18.10;51.40;;;;;;5004676;28;19921;-60
2021/04/03 12:01:59;;;;;;;;;;;18.10;51.40;;;;;;5004361;28;19917;-59
2021/04/03 12:04:25;;;;;;;;;;;18.20;51.40;;;;;;5005159;28;19914;-60
2021/04/03 12:06:51;;;;;;;;;;;18.10;51.40;;;;;;5022708;28;19936;-59
2021/04/03 12:09:17;;;;;;;;;;;18.20;51.40;;;;;;5020203;28;19949;-58
2021/04/03 12:11:43;;;;;;;;;;;18.10;51.30;;;;;;5005449;28;19975;-59
2021/04/03 12:14:08;;;;;;;;;;;18.20;51.40;;;;;;5005730;28;19918;-59
2021/04/03 12:16:33;;;;;;;;;;;18.20;51.40;;;;;;5005266;28;19917;-58
2021/04/03 12:18:59;;;;;;;;;;;18.10;51.30;;;;;;5005620;28;19913;-58
2021/04/03 12:21:24;;;;;;;;;;;18.10;51.30;;;;;;5005224;28;19913;-59
2021/04/03 12:23:50;;;;;;;;;;;18.20;51.40;;;;;;5024954;28;20409;-59
2021/04/03 12:26:15;;;;;;;;;;;18.10;51.20;;;;;;5025167;28;19917;-58
2021/04/03 12:28:41;;;;;;;;;;;18.10;51.10;;;;;;5026336;28;20713;-59
2021/04/03 12:31:06;;;;;;;;;;;18.20;51.10;;;;;;5025501;28;19917;-58
2021/04/03 12:33:32;;;;;;;;;;;18.20;51.10;;;;;;5008170;28;19917;-60
2021/04/03 12:35:57;;;;;;;;;;;18.10;51.00;;;;;;5008567;28;19913;-60
2021/04/03 12:38:23;;;;;;;;;;;18.10;51.10;;;;;;5008296;28;20380;-60
2021/04/03 12:40:48;;;;;;;;;;;18.10;51.00;;;;;;5008028;28;19923;-59
2021/04/03 12:43:14;;;;;;;;;;;18.10;51.00;;;;;;5025748;28;19918;-57
2021/04/03 12:45:39;;;;;;;;;;;18.10;51.00;;;;;;5006877;28;19921;-59
2021/04/03 12:48:06;;;;;;;;;;;18.10;51.00;;;;;;5024823;28;19922;-58
2021/04/03 12:50:31;;;;;;;;;;;18.10;51.00;;;;;;5024772;28;19975;-59
2021/04/03 12:52:57;;;;;;;;;;;18.10;50.90;;;;;;5024667;28;20336;-58
2021/04/03 12:55:22;;;;;;;;;;;18.10;50.90;;;;;;5007447;28;19928;-58
2021/04/03 12:57:48;;;;;;;;;;;18.10;50.90;;;;;;5024545;28;19913;-58
2021/04/03 13:00:13;;;;;;;;;;;18.10;50.80;;;;;;5007867;28;19913;-59
2021/04/03 13:02:39;;;;;;;;;;;18.10;50.80;;;;;;5024986;28;20001;-59
2021/04/03 13:05:05;;;;;;;;;;;18.10;50.80;;;;;;5025551;28;19925;-60
2021/04/03 13:07:31;;;;;;;;;;;18.10;50.80;;;;;;5024414;28;20028;-59
2021/04/03 13:09:56;;;;;;;;;;;18.10;50.80;;;;;;5007310;28;19941;-59
2021/04/03 13:12:21;;;;;;;;;;;18.10;50.80;;;;;;5023922;28;19932;-60
2021/04/03 13:14:47;;;;;;;;;;;18.10;50.80;;;;;;5025240;28;20491;-59
2021/04/03 13:17:13;;;;;;;;;;;18.10;50.70;;;;;;5024902;28;19913;-60
2021/04/03 13:19:39;;;;;;;;;;;18.10;50.70;;;;;;5024057;28;19913;-58
2021/04/03 13:22:04;;;;;;;;;;;18.10;50.70;;;;;;5024333;28;20359;-58
2021/04/03 13:24:30;;;;;;;;;;;18.10;50.70;;;;;;5024984;28;19913;-57
2021/04/03 13:26:55;;;;;;;;;;;18.10;50.70;;;;;;5006098;28;19917;-59
2021/04/03 13:29:21;;;;;;;;;;;18.10;50.70;;;;;;5024236;28;19921;-57
2021/04/03 13:31:46;;;;;;;;;;;18.10;50.70;;;;;;5024027;28;19917;-58
2021/04/03 13:34:12;;;;;;;;;;;18.10;50.60;;;;;;5025092;28;19913;-59
2021/04/03 13:36:37;;;;;;;;;;;18.10;50.70;;;;;;5023896;28;19917;-59
2021/04/03 13:39:02;;;;;;;;;;;18.10;50.70;;;;;;5007014;28;20018;-58
2021/04/03 13:41:28;;;;;;;;;;;18.00;50.60;;;;;;5023907;28;19913;-59
2021/04/03 13:43:53;;;;;;;;;;;18.00;50.60;;;;;;5024516;28;19920;-59
2021/04/03 13:46:19;;;;;;;;;;;18.00;50.70;;;;;;5006686;28;19913;-59
2021/04/03 13:48:44;;;;;;;;;;;18.00;50.60;;;;;;5006754;28;20471;-58
2021/04/03 13:51:10;;;;;;;;;;;18.00;50.60;;;;;;5024155;28;19921;-58
2021/04/03 13:53:35;;;;;;;;;;;18.00;50.60;;;;;;5024141;28;19927;-59
2021/04/03 13:56:01;;;;;;;;;;;18.00;50.60;;;;;;5006257;28;20307;-59
2021/04/03 13:58:26;;;;;;;;;;;18.00;50.60;;;;;;5023941;28;19919;-56
2021/04/03 14:00:52;;;;;;;;;;;18.00;50.60;;;;;;5023964;28;20385;-56
2021/04/03 14:03:17;;;;;;;;;;;18.00;50.60;;;;;;5005983;28;19939;-57
2021/04/03 14:05:43;;;;;;;;;;;18.00;50.60;;;;;;5024935;28;19917;-59
2021/04/03 14:08:08;;;;;;;;;;;18.00;50.50;;;;;;5005990;28;19976;-59
2021/04/03 14:10:34;;;;;;;;;;;18.00;50.50;;;;;;5023809;28;19924;-58